CST,Max TemperatureF,Mean TemperatureF,Min TemperatureF,Max Dew PointF,MeanDew PointF,Min DewpointF,Max Humidity, Mean Humidity, Min Humidity, Max Sea Level PressureIn, Mean Sea Level PressureIn, Min Sea Level PressureIn, Max VisibilityMiles, Mean VisibilityMiles, Min VisibilityMiles, Max Wind SpeedMPH, Mean Wind SpeedMPH, Max Gust SpeedMPH,PrecipitationIn, CloudCover, Events, WindDirDegrees
2014-1-1,22,18,14,18,16,9,89,85,77,30.26,30.20,30.13,10,6,2,21,11,25,0.14,8,Rain-Snow,65
2014-1-2,20,9,-2,17,10,-4,88,81,71,30.39,30.21,30.08,10,6,0,18,13,23,0.24,6,Rain-Snow,1
2014-1-3,19,4,-11,13,8,0,79,73,60,30.38,30.13,29.92,10,8,4,29,18,38,0.00,2,Snow,184
2014-1-4,32,25,18,30,22,13,100,81,64,29.98,29.90,29.84,10,6,1,32,18,39,0.25,5,Rain-Snow,218
2014-1-5,29,13,-4,30,12,-12,100,89,59,30.05,29.98,29.89,10,3,0,26,15,33,0.43,8,Snow,358
2014-1-6,-4,-10,-17,-12,-21,-26,73,67,61,30.27,30.20,30.05,10,6,1,29,21,34,0.00,4,,280
2014-1-7,4,-5,-14,-2,-11,-19,85,73,64,30.32,30.27,30.24,10,10,7,15,10,20,0.00,2,,230
2014-1-8,13,5,-3,3,-2,-7,88,75,56,30.50,30.39,30.27,10,10,1,7,3,,0.00,1,Snow,338
2014-1-9,28,14,0,29,12,-6,100,86,76,30.51,30.35,30.14,10,6,1,12,5,,0.02,6,Snow,128
2014-1-10,40,34,28,40,34,29,100,100,100,30.14,29.86,29.50,10,3,0,22,11,28,0.97,8,Fog-Rain,179
2014-1-11,40,35,30,39,32,27,100,93,78,29.79,29.57,29.43,10,6,0,24,13,30,0.10,8,Fog-Rain,269
2014-1-12,44,36,28,32,30,26,100,82,65,29.89,29.75,29.60,10,9,4,31,16,39,0.00,4,,208
2014-1-13,43,34,24,35,31,23,91,79,69,29.78,29.64,29.55,10,10,7,24,15,32,0.00,1,,243
2014-1-14,34,27,20,34,24,16,100,87,69,29.90,29.74,29.62,10,7,1,31,13,45,0.02,6,Rain-Snow,236
2014-1-15,20,18,15,16,11,8,81,76,68,30.09,30.01,29.86,10,10,7,20,13,26,T,5,Snow,274
2014-1-16,35,27,19,32,20,11,92,76,62,29.85,29.63,29.49,10,10,2,26,18,34,T,7,Rain-Snow,235
2014-1-17,19,15,10,12,8,4,84,76,69,29.98,29.88,29.71,10,8,2,20,15,25,T,8,Snow,283
2014-1-18,19,13,6,16,10,3,98,86,79,29.95,29.84,29.71,10,6,0,15,8,20,0.11,5,Snow,162
2014-1-19,38,21,4,29,18,2,92,81,70,29.87,29.70,29.54,10,9,0,22,10,26,0.00,0,Fog-Snow,240
2014-1-20,36,25,14,28,24,11,87,80,72,30.02,29.85,29.60,10,8,2,24,11,30,0.05,7,Rain-Snow,329
2014-1-21,14,5,-5,10,-4,-8,84,67,51,30.28,30.21,30.03,10,9,2,28,15,37,0.02,2,Snow,331
2014-1-22,15,5,-5,10,0,-11,84,74,57,30.19,30.03,29.88,10,7,1,25,9,31,T,6,Snow,253
2014-1-23,6,-2,-11,-4,-10,-15,74,66,59,30.60,30.46,30.20,10,10,4,20,15,24,0.00,1,,295
2014-1-24,27,9,-10,24,3,-15,89,70,56,30.54,30.01,29.47,10,8,2,33,17,45,0.02,5,Rain-Snow,224
2014-1-25,33,20,6,32,8,-4,100,64,42,29.88,29.65,29.41,10,9,2,30,19,40,T,3,Rain-Snow,292
2014-1-26,31,18,4,24,12,-4,89,76,60,29.85,29.55,29.38,10,6,0,41,14,48,0.18,7,Rain-Snow,246
2014-1-27,4,-4,-12,-3,-13,-19,74,66,56,30.43,30.24,29.87,10,9,2,31,20,38,0.00,3,Snow,294
2014-1-28,3,-6,-15,-7,-13,-20,76,68,61,30.44,30.36,30.24,10,10,10,17,9,22,0.00,0,,257
2014-1-29,23,8,-8,7,0,-11,78,61,46,30.24,30.15,30.00,10,10,10,22,10,29,0.00,0,,228
2014-1-30,33,26,18,27,17,7,91,69,50,30.00,29.82,29.67,10,9,0,31,20,44,0.02,4,Rain-Snow,216
2014-1-31,21,15,9,21,14,9,100,79,65,30.16,30.08,29.94,10,8,2,12,6,,0.05,5,Rain-Snow,305